sensor_id;sensor_type;location;lat;lon;timestamp;P1;durP1;ratioP1;P2;durP2;ratioP2
69795;SDS011;57073;45.650;9.612;2023-09-19T00:02:58;6.65;;;3.60;;
69795;SDS011;57073;45.650;9.612;2023-09-19T00:08:01;7.37;;;3.70;;
69795;SDS011;57073;45.650;9.612;2023-09-19T00:13:05;6.83;;;3.60;;
69795;SDS011;57073;45.650;9.612;2023-09-19T00:18:07;7.07;;;3.53;;
69795;SDS011;57073;45.650;9.612;2023-09-19T00:23:08;6.10;;;3.27;;
69795;SDS011;57073;45.650;9.612;2023-09-19T00:28:09;6.27;;;3.23;;
69795;SDS011;57073;45.650;9.612;2023-09-19T00:33:09;4.80;;;2.40;;
69795;SDS011;57073;45.650;9.612;2023-09-19T00:38:11;7.33;;;3.10;;
69795;SDS011;57073;45.650;9.612;2023-09-19T00:43:14;7.63;;;2.90;;
69795;SDS011;57073;45.650;9.612;2023-09-19T00:48:16;5.72;;;3.20;;
69795;SDS011;57073;45.650;9.612;2023-09-19T00:53:20;7.70;;;3.77;;
69795;SDS011;57073;45.650;9.612;2023-09-19T00:58:22;8.82;;;3.60;;
69795;SDS011;57073;45.650;9.612;2023-09-19T01:03:23;7.97;;;3.90;;
69795;SDS011;57073;45.650;9.612;2023-09-19T01:08:23;7.00;;;3.43;;
69795;SDS011;57073;45.650;9.612;2023-09-19T01:13:40;7.43;;;3.72;;
69795;SDS011;57073;45.650;9.612;2023-09-19T01:18:55;8.88;;;4.07;;
69795;SDS011;57073;45.650;9.612;2023-09-19T01:29:39;4.93;;;2.38;;
69795;SDS011;57073;45.650;9.612;2023-09-19T01:34:51;7.27;;;2.33;;
69795;SDS011;57073;45.650;9.612;2023-09-19T01:39:58;5.35;;;2.45;;
69795;SDS011;57073;45.650;9.612;2023-09-19T01:45:12;6.15;;;2.20;;
69795;SDS011;57073;45.650;9.612;2023-09-19T01:55:43;5.22;;;2.00;;
69795;SDS011;57073;45.650;9.612;2023-09-19T02:00:49;7.70;;;1.83;;
69795;SDS011;57073;45.650;9.612;2023-09-19T02:05:54;6.77;;;1.80;;
69795;SDS011;57073;45.650;9.612;2023-09-19T02:10:54;7.03;;;2.33;;
69795;SDS011;57073;45.650;9.612;2023-09-19T02:15:55;6.50;;;1.93;;
69795;SDS011;57073;45.650;9.612;2023-09-19T02:20:56;4.67;;;2.03;;
69795;SDS011;57073;45.650;9.612;2023-09-19T02:25:58;5.30;;;2.50;;
69795;SDS011;57073;45.650;9.612;2023-09-19T02:31:02;6.90;;;2.10;;
69795;SDS011;57073;45.650;9.612;2023-09-19T02:36:05;4.10;;;2.13;;
69795;SDS011;57073;45.650;9.612;2023-09-19T02:41:05;6.40;;;2.10;;
69795;SDS011;57073;45.650;9.612;2023-09-19T02:46:05;6.23;;;2.20;;
69795;SDS011;57073;45.650;9.612;2023-09-19T02:51:06;6.77;;;2.47;;
69795;SDS011;57073;45.650;9.612;2023-09-19T02:56:07;6.27;;;2.20;;
69795;SDS011;57073;45.650;9.612;2023-09-19T03:01:08;5.20;;;1.80;;
69795;SDS011;57073;45.650;9.612;2023-09-19T03:06:09;6.07;;;2.10;;
69795;SDS011;57073;45.650;9.612;2023-09-19T03:11:10;6.73;;;2.27;;
69795;SDS011;57073;45.650;9.612;2023-09-19T03:16:11;7.28;;;2.47;;
69795;SDS011;57073;45.650;9.612;2023-09-19T03:21:15;5.53;;;1.92;;
69795;SDS011;57073;45.650;9.612;2023-09-19T03:26:17;5.13;;;2.10;;
69795;SDS011;57073;45.650;9.612;2023-09-19T03:31:17;5.80;;;2.42;;
69795;SDS011;57073;45.650;9.612;2023-09-19T03:36:18;4.37;;;2.00;;
69795;SDS011;57073;45.650;9.612;2023-09-19T03:41:18;3.30;;;2.30;;
69795;SDS011;57073;45.650;9.612;2023-09-19T03:46:19;6.40;;;2.80;;
69795;SDS011;57073;45.650;9.612;2023-09-19T03:51:20;6.10;;;2.50;;
69795;SDS011;57073;45.650;9.612;2023-09-19T03:56:20;6.63;;;2.53;;
69795;SDS011;57073;45.650;9.612;2023-09-19T04:01:21;8.20;;;2.33;;
69795;SDS011;57073;45.650;9.612;2023-09-19T04:06:22;6.78;;;2.40;;
69795;SDS011;57073;45.650;9.612;2023-09-19T04:11:22;7.77;;;2.50;;
69795;SDS011;57073;45.650;9.612;2023-09-19T04:16:22;4.67;;;2.63;;
69795;SDS011;57073;45.650;9.612;2023-09-19T04:21:23;10.33;;;4.47;;
69795;SDS011;57073;45.650;9.612;2023-09-19T04:26:23;7.57;;;2.87;;
69795;SDS011;57073;45.650;9.612;2023-09-19T04:31:25;5.32;;;2.60;;
69795;SDS011;57073;45.650;9.612;2023-09-19T04:36:26;5.63;;;2.60;;
69795;SDS011;57073;45.650;9.612;2023-09-19T04:41:26;5.33;;;2.60;;
69795;SDS011;57073;45.650;9.612;2023-09-19T04:46:26;9.00;;;3.00;;
69795;SDS011;57073;45.650;9.612;2023-09-19T04:51:27;6.33;;;2.50;;
69795;SDS011;57073;45.650;9.612;2023-09-19T04:56:30;9.47;;;2.53;;
69795;SDS011;57073;45.650;9.612;2023-09-19T05:01:32;8.45;;;2.45;;
69795;SDS011;57073;45.650;9.612;2023-09-19T05:06:32;9.70;;;2.60;;
69795;SDS011;57073;45.650;9.612;2023-09-19T05:11:35;6.30;;;2.40;;
69795;SDS011;57073;45.650;9.612;2023-09-19T05:16:38;5.05;;;2.30;;
69795;SDS011;57073;45.650;9.612;2023-09-19T05:21:38;7.83;;;2.40;;
69795;SDS011;57073;45.650;9.612;2023-09-19T05:26:39;7.87;;;2.60;;
69795;SDS011;57073;45.650;9.612;2023-09-19T05:31:40;4.07;;;2.13;;
69795;SDS011;57073;45.650;9.612;2023-09-19T05:36:41;6.53;;;2.13;;
69795;SDS011;57073;45.650;9.612;2023-09-19T05:41:41;9.57;;;2.43;;
69795;SDS011;57073;45.650;9.612;2023-09-19T05:46:42;7.95;;;2.50;;
69795;SDS011;57073;45.650;9.612;2023-09-19T05:51:42;6.70;;;2.55;;
69795;SDS011;57073;45.650;9.612;2023-09-19T05:56:43;5.33;;;2.47;;
69795;SDS011;57073;45.650;9.612;2023-09-19T06:01:43;6.17;;;2.13;;
69795;SDS011;57073;45.650;9.612;2023-09-19T06:06:43;8.30;;;2.37;;
69795;SDS011;57073;45.650;9.612;2023-09-19T06:11:44;6.47;;;2.70;;
69795;SDS011;57073;45.650;9.612;2023-09-19T06:16:45;5.93;;;2.20;;
69795;SDS011;57073;45.650;9.612;2023-09-19T06:21:45;5.23;;;2.60;;
69795;SDS011;57073;45.650;9.612;2023-09-19T06:26:46;8.23;;;2.22;;
69795;SDS011;57073;45.650;9.612;2023-09-19T06:31:47;7.70;;;2.73;;
69795;SDS011;57073;45.650;9.612;2023-09-19T06:36:48;6.90;;;2.40;;
69795;SDS011;57073;45.650;9.612;2023-09-19T06:41:48;6.43;;;2.83;;
69795;SDS011;57073;45.650;9.612;2023-09-19T06:46:49;6.65;;;2.90;;
69795;SDS011;57073;45.650;9.612;2023-09-19T06:51:50;6.83;;;2.83;;
69795;SDS011;57073;45.650;9.612;2023-09-19T06:56:50;7.30;;;2.70;;
69795;SDS011;57073;45.650;9.612;2023-09-19T07:01:50;5.50;;;2.43;;
69795;SDS011;57073;45.650;9.612;2023-09-19T07:06:51;10.27;;;3.07;;
69795;SDS011;57073;45.650;9.612;2023-09-19T07:11:51;12.73;;;3.40;;
69795;SDS011;57073;45.650;9.612;2023-09-19T07:16:51;8.13;;;2.80;;
69795;SDS011;57073;45.650;9.612;2023-09-19T07:21:52;11.90;;;2.60;;
69795;SDS011;57073;45.650;9.612;2023-09-19T07:26:52;8.77;;;2.43;;
69795;SDS011;57073;45.650;9.612;2023-09-19T07:31:53;14.03;;;2.87;;
69795;SDS011;57073;45.650;9.612;2023-09-19T07:36:53;5.78;;;2.30;;
69795;SDS011;57073;45.650;9.612;2023-09-19T07:41:54;8.43;;;2.00;;
69795;SDS011;57073;45.650;9.612;2023-09-19T07:46:54;6.80;;;2.10;;
69795;SDS011;57073;45.650;9.612;2023-09-19T07:51:54;10.90;;;2.37;;
69795;SDS011;57073;45.650;9.612;2023-09-19T07:56:57;4.40;;;1.83;;
69795;SDS011;57073;45.650;9.612;2023-09-19T08:01:58;3.87;;;2.07;;
69795;SDS011;57073;45.650;9.612;2023-09-19T08:06:58;5.47;;;2.57;;
69795;SDS011;57073;45.650;9.612;2023-09-19T08:11:59;6.63;;;2.37;;
69795;SDS011;57073;45.650;9.612;2023-09-19T08:17:03;7.03;;;2.60;;
69795;SDS011;57073;45.650;9.612;2023-09-19T08:22:08;5.68;;;2.53;;
69795;SDS011;57073;45.650;9.612;2023-09-19T08:27:10;8.43;;;2.60;;
69795;SDS011;57073;45.650;9.612;2023-09-19T08:32:12;6.25;;;2.40;;
69795;SDS011;57073;45.650;9.612;2023-09-19T08:37:12;5.90;;;2.50;;
69795;SDS011;57073;45.650;9.612;2023-09-19T08:42:13;7.57;;;2.80;;
69795;SDS011;57073;45.650;9.612;2023-09-19T08:47:14;7.23;;;2.67;;
69795;SDS011;57073;45.650;9.612;2023-09-19T08:52:20;6.90;;;2.90;;
69795;SDS011;57073;45.650;9.612;2023-09-19T08:57:25;7.65;;;2.67;;
69795;SDS011;57073;45.650;9.612;2023-09-19T09:02:29;7.40;;;2.43;;
69795;SDS011;57073;45.650;9.612;2023-09-19T09:07:34;10.73;;;3.10;;
69795;SDS011;57073;45.650;9.612;2023-09-19T09:12:35;7.07;;;3.10;;
69795;SDS011;57073;45.650;9.612;2023-09-19T09:17:37;8.13;;;3.27;;
69795;SDS011;57073;45.650;9.612;2023-09-19T09:22:37;8.70;;;3.57;;
69795;SDS011;57073;45.650;9.612;2023-09-19T09:27:45;9.20;;;3.50;;
69795;SDS011;57073;45.650;9.612;2023-09-19T09:33:11;10.30;;;3.57;;
69795;SDS011;57073;45.650;9.612;2023-09-19T09:38:12;9.35;;;3.28;;
69795;SDS011;57073;45.650;9.612;2023-09-19T09:43:32;7.43;;;3.00;;
69795;SDS011;57073;45.650;9.612;2023-09-19T09:48:36;10.07;;;3.47;;
69795;SDS011;57073;45.650;9.612;2023-09-19T09:53:39;8.73;;;3.28;;
69795;SDS011;57073;45.650;9.612;2023-09-19T09:58:49;12.37;;;3.43;;
69795;SDS011;57073;45.650;9.612;2023-09-19T10:03:58;7.55;;;3.50;;
69795;SDS011;57073;45.650;9.612;2023-09-19T10:09:07;5.97;;;3.13;;
69795;SDS011;57073;45.650;9.612;2023-09-19T10:14:17;8.85;;;3.90;;
69795;SDS011;57073;45.650;9.612;2023-09-19T10:19:24;7.80;;;3.83;;
69795;SDS011;57073;45.650;9.612;2023-09-19T10:24:46;9.10;;;4.20;;
69795;SDS011;57073;45.650;9.612;2023-09-19T10:29:51;9.73;;;4.28;;
69795;SDS011;57073;45.650;9.612;2023-09-19T10:34:55;9.33;;;3.90;;
69795;SDS011;57073;45.650;9.612;2023-09-19T10:39:57;9.87;;;4.03;;
69795;SDS011;57073;45.650;9.612;2023-09-19T10:44:58;9.13;;;4.75;;
69795;SDS011;57073;45.650;9.612;2023-09-19T10:50:01;10.27;;;4.45;;
69795;SDS011;57073;45.650;9.612;2023-09-19T10:55:02;11.07;;;4.40;;
69795;SDS011;57073;45.650;9.612;2023-09-19T11:00:04;8.30;;;4.75;;
69795;SDS011;57073;45.650;9.612;2023-09-19T11:05:23;6.83;;;3.93;;
69795;SDS011;57073;45.650;9.612;2023-09-19T11:26:40;9.93;;;5.03;;
69795;SDS011;57073;45.650;9.612;2023-09-19T11:31:51;10.03;;;4.60;;
69795;SDS011;57073;45.650;9.612;2023-09-19T11:36:55;7.97;;;4.55;;
69795;SDS011;57073;45.650;9.612;2023-09-19T11:41:55;9.80;;;4.97;;
69795;SDS011;57073;45.650;9.612;2023-09-19T11:46:58;9.17;;;4.70;;
69795;SDS011;57073;45.650;9.612;2023-09-19T11:52:00;13.37;;;6.07;;
69795;SDS011;57073;45.650;9.612;2023-09-19T11:57:01;12.27;;;5.38;;
69795;SDS011;57073;45.650;9.612;2023-09-19T12:02:06;13.77;;;5.80;;
69795;SDS011;57073;45.650;9.612;2023-09-19T12:07:11;14.65;;;6.10;;
69795;SDS011;57073;45.650;9.612;2023-09-19T12:12:25;11.40;;;5.40;;
69795;SDS011;57073;45.650;9.612;2023-09-19T12:17:37;11.17;;;5.50;;
69795;SDS011;57073;45.650;9.612;2023-09-19T12:22:43;9.05;;;5.20;;
69795;SDS011;57073;45.650;9.612;2023-09-19T12:27:44;12.57;;;5.60;;
69795;SDS011;57073;45.650;9.612;2023-09-19T12:32:56;10.33;;;5.00;;
69795;SDS011;57073;45.650;9.612;2023-09-19T12:37:58;11.70;;;5.28;;
69795;SDS011;57073;45.650;9.612;2023-09-19T12:42:58;9.27;;;5.50;;
69795;SDS011;57073;45.650;9.612;2023-09-19T12:53:25;8.87;;;4.27;;
69795;SDS011;57073;45.650;9.612;2023-09-19T12:58:29;10.55;;;4.32;;
69795;SDS011;57073;45.650;9.612;2023-09-19T13:03:30;8.83;;;4.13;;
69795;SDS011;57073;45.650;9.612;2023-09-19T13:08:37;9.27;;;4.17;;
69795;SDS011;57073;45.650;9.612;2023-09-19T13:18:41;10.47;;;4.87;;
69795;SDS011;57073;45.650;9.612;2023-09-19T13:23:51;10.65;;;4.82;;
69795;SDS011;57073;45.650;9.612;2023-09-19T13:29:04;11.45;;;4.40;;
69795;SDS011;57073;45.650;9.612;2023-09-19T13:34:05;7.97;;;4.43;;
69795;SDS011;57073;45.650;9.612;2023-09-19T13:39:05;9.55;;;4.60;;
69795;SDS011;57073;45.650;9.612;2023-09-19T13:44:07;11.43;;;4.83;;
69795;SDS011;57073;45.650;9.612;2023-09-19T13:49:08;10.20;;;4.63;;
69795;SDS011;57073;45.650;9.612;2023-09-19T13:54:09;7.80;;;4.63;;
69795;SDS011;57073;45.650;9.612;2023-09-19T13:59:11;11.23;;;5.17;;
69795;SDS011;57073;45.650;9.612;2023-09-19T14:04:12;11.30;;;5.30;;
69795;SDS011;57073;45.650;9.612;2023-09-19T14:09:13;10.27;;;5.22;;
69795;SDS011;57073;45.650;9.612;2023-09-19T14:14:13;9.67;;;4.90;;
69795;SDS011;57073;45.650;9.612;2023-09-19T14:19:15;11.10;;;4.55;;
69795;SDS011;57073;45.650;9.612;2023-09-19T14:24:16;9.63;;;5.00;;
69795;SDS011;57073;45.650;9.612;2023-09-19T14:29:17;8.77;;;4.80;;
69795;SDS011;57073;45.650;9.612;2023-09-19T14:34:19;12.25;;;5.13;;
69795;SDS011;57073;45.650;9.612;2023-09-19T14:39:20;7.83;;;4.80;;
69795;SDS011;57073;45.650;9.612;2023-09-19T14:44:20;14.50;;;4.97;;
69795;SDS011;57073;45.650;9.612;2023-09-19T14:49:20;7.83;;;4.10;;
69795;SDS011;57073;45.650;9.612;2023-09-19T14:54:21;12.47;;;4.77;;
69795;SDS011;57073;45.650;9.612;2023-09-19T14:59:22;10.60;;;5.03;;
69795;SDS011;57073;45.650;9.612;2023-09-19T15:04:23;11.57;;;5.47;;
69795;SDS011;57073;45.650;9.612;2023-09-19T15:09:24;8.43;;;4.57;;
69795;SDS011;57073;45.650;9.612;2023-09-19T15:14:26;12.18;;;5.40;;
69795;SDS011;57073;45.650;9.612;2023-09-19T15:19:26;11.10;;;4.77;;
69795;SDS011;57073;45.650;9.612;2023-09-19T15:24:27;11.17;;;5.40;;
69795;SDS011;57073;45.650;9.612;2023-09-19T15:29:27;9.53;;;4.93;;
69795;SDS011;57073;45.650;9.612;2023-09-19T15:34:28;12.40;;;5.40;;
69795;SDS011;57073;45.650;9.612;2023-09-19T15:39:30;11.25;;;4.72;;
69795;SDS011;57073;45.650;9.612;2023-09-19T15:44:33;8.97;;;4.97;;
69795;SDS011;57073;45.650;9.612;2023-09-19T15:49:34;9.47;;;4.60;;
69795;SDS011;57073;45.650;9.612;2023-09-19T15:54:34;10.37;;;4.87;;
69795;SDS011;57073;45.650;9.612;2023-09-19T15:59:35;8.30;;;4.60;;
69795;SDS011;57073;45.650;9.612;2023-09-19T16:04:35;7.33;;;4.60;;
69795;SDS011;57073;45.650;9.612;2023-09-19T16:09:38;8.48;;;4.90;;
69795;SDS011;57073;45.650;9.612;2023-09-19T16:14:38;9.47;;;5.37;;
69795;SDS011;57073;45.650;9.612;2023-09-19T16:19:39;9.00;;;5.10;;
69795;SDS011;57073;45.650;9.612;2023-09-19T16:24:40;12.17;;;5.53;;
69795;SDS011;57073;45.650;9.612;2023-09-19T16:29:40;10.30;;;5.50;;
69795;SDS011;57073;45.650;9.612;2023-09-19T16:34:41;11.30;;;6.00;;
69795;SDS011;57073;45.650;9.612;2023-09-19T16:39:41;8.25;;;5.07;;
69795;SDS011;57073;45.650;9.612;2023-09-19T16:44:42;10.63;;;5.93;;
69795;SDS011;57073;45.650;9.612;2023-09-19T16:49:42;9.93;;;5.80;;
69795;SDS011;57073;45.650;9.612;2023-09-19T16:54:42;9.53;;;5.47;;
69795;SDS011;57073;45.650;9.612;2023-09-19T16:59:43;7.60;;;5.80;;
69795;SDS011;57073;45.650;9.612;2023-09-19T17:04:43;11.90;;;5.93;;
69795;SDS011;57073;45.650;9.612;2023-09-19T17:09:43;8.20;;;5.40;;
69795;SDS011;57073;45.650;9.612;2023-09-19T17:14:44;10.30;;;5.87;;
69795;SDS011;57073;45.650;9.612;2023-09-19T17:19:44;9.93;;;5.53;;
69795;SDS011;57073;45.650;9.612;2023-09-19T17:24:44;9.43;;;5.73;;
69795;SDS011;57073;45.650;9.612;2023-09-19T17:29:45;12.48;;;5.38;;
69795;SDS011;57073;45.650;9.612;2023-09-19T17:34:46;11.43;;;6.00;;
69795;SDS011;57073;45.650;9.612;2023-09-19T17:39:49;10.88;;;6.28;;
69795;SDS011;57073;45.650;9.612;2023-09-19T17:44:49;9.90;;;6.00;;
69795;SDS011;57073;45.650;9.612;2023-09-19T17:49:51;13.02;;;6.57;;
69795;SDS011;57073;45.650;9.612;2023-09-19T17:54:52;11.70;;;6.37;;
69795;SDS011;57073;45.650;9.612;2023-09-19T17:59:52;10.90;;;6.00;;
69795;SDS011;57073;45.650;9.612;2023-09-19T18:04:52;13.33;;;6.50;;
69795;SDS011;57073;45.650;9.612;2023-09-19T18:09:53;12.63;;;7.82;;
69795;SDS011;57073;45.650;9.612;2023-09-19T18:14:55;11.35;;;6.40;;
69795;SDS011;57073;45.650;9.612;2023-09-19T18:19:55;9.77;;;6.20;;
69795;SDS011;57073;45.650;9.612;2023-09-19T18:24:56;12.27;;;6.90;;
69795;SDS011;57073;45.650;9.612;2023-09-19T18:29:56;11.63;;;7.60;;
69795;SDS011;57073;45.650;9.612;2023-09-19T18:34:57;12.07;;;6.70;;
69795;SDS011;57073;45.650;9.612;2023-09-19T18:39:57;14.47;;;6.97;;
69795;SDS011;57073;45.650;9.612;2023-09-19T18:44:57;12.87;;;6.60;;
69795;SDS011;57073;45.650;9.612;2023-09-19T18:49:58;13.63;;;6.40;;
69795;SDS011;57073;45.650;9.612;2023-09-19T18:54:58;11.97;;;6.17;;
69795;SDS011;57073;45.650;9.612;2023-09-19T18:59:59;13.45;;;6.90;;
69795;SDS011;57073;45.650;9.612;2023-09-19T19:04:59;12.27;;;6.77;;
69795;SDS011;57073;45.650;9.612;2023-09-19T19:10:00;12.17;;;7.07;;
69795;SDS011;57073;45.650;9.612;2023-09-19T19:15:03;14.45;;;6.97;;
69795;SDS011;57073;45.650;9.612;2023-09-19T19:20:04;16.70;;;7.05;;
69795;SDS011;57073;45.650;9.612;2023-09-19T19:25:06;14.07;;;7.10;;
69795;SDS011;57073;45.650;9.612;2023-09-19T19:30:09;14.05;;;6.70;;
69795;SDS011;57073;45.650;9.612;2023-09-19T19:35:11;14.48;;;7.40;;
69795;SDS011;57073;45.650;9.612;2023-09-19T19:40:13;10.23;;;6.90;;
69795;SDS011;57073;45.650;9.612;2023-09-19T19:45:13;15.13;;;7.30;;
69795;SDS011;57073;45.650;9.612;2023-09-19T19:50:13;10.90;;;6.90;;
69795;SDS011;57073;45.650;9.612;2023-09-19T19:55:16;16.40;;;6.93;;
69795;SDS011;57073;45.650;9.612;2023-09-19T20:00:16;11.30;;;6.97;;
69795;SDS011;57073;45.650;9.612;2023-09-19T20:05:20;13.13;;;6.95;;
69795;SDS011;57073;45.650;9.612;2023-09-19T20:10:20;14.10;;;7.73;;
69795;SDS011;57073;45.650;9.612;2023-09-19T20:15:21;15.27;;;6.87;;
69795;SDS011;57073;45.650;9.612;2023-09-19T20:20:24;13.32;;;7.13;;
69795;SDS011;57073;45.650;9.612;2023-09-19T20:25:27;11.53;;;6.63;;
69795;SDS011;57073;45.650;9.612;2023-09-19T20:30:28;10.30;;;6.00;;
69795;SDS011;57073;45.650;9.612;2023-09-19T20:35:28;14.98;;;6.20;;
69795;SDS011;57073;45.650;9.612;2023-09-19T20:40:29;12.03;;;5.90;;
69795;SDS011;57073;45.650;9.612;2023-09-19T20:45:30;10.57;;;5.60;;
69795;SDS011;57073;45.650;9.612;2023-09-19T20:50:33;8.90;;;5.65;;
69795;SDS011;57073;45.650;9.612;2023-09-19T20:55:34;9.83;;;5.60;;
69795;SDS011;57073;45.650;9.612;2023-09-19T21:00:39;10.30;;;5.65;;
69795;SDS011;57073;45.650;9.612;2023-09-19T21:05:40;12.07;;;5.60;;
69795;SDS011;57073;45.650;9.612;2023-09-19T21:10:41;11.90;;;5.20;;
69795;SDS011;57073;45.650;9.612;2023-09-19T21:15:42;9.53;;;5.20;;
69795;SDS011;57073;45.650;9.612;2023-09-19T21:20:42;9.93;;;5.07;;
69795;SDS011;57073;45.650;9.612;2023-09-19T21:25:43;10.40;;;5.27;;
69795;SDS011;57073;45.650;9.612;2023-09-19T21:30:43;10.67;;;5.00;;
69795;SDS011;57073;45.650;9.612;2023-09-19T21:35:44;6.80;;;4.77;;
69795;SDS011;57073;45.650;9.612;2023-09-19T21:40:45;10.13;;;4.88;;
69795;SDS011;57073;45.650;9.612;2023-09-19T21:45:45;10.47;;;4.83;;
69795;SDS011;57073;45.650;9.612;2023-09-19T21:50:52;8.57;;;4.60;;
69795;SDS011;57073;45.650;9.612;2023-09-19T21:55:58;7.57;;;4.57;;
69795;SDS011;57073;45.650;9.612;2023-09-19T22:01:02;9.90;;;4.23;;
69795;SDS011;57073;45.650;9.612;2023-09-19T22:06:06;10.27;;;4.85;;
69795;SDS011;57073;45.650;9.612;2023-09-19T22:11:07;7.27;;;5.00;;
69795;SDS011;57073;45.650;9.612;2023-09-19T22:16:09;9.25;;;4.60;;
69795;SDS011;57073;45.650;9.612;2023-09-19T22:21:13;12.07;;;4.80;;
69795;SDS011;57073;45.650;9.612;2023-09-19T22:26:19;12.40;;;4.70;;
69795;SDS011;57073;45.650;9.612;2023-09-19T22:31:25;10.63;;;5.10;;
69795;SDS011;57073;45.650;9.612;2023-09-19T22:36:31;7.70;;;4.27;;
69795;SDS011;57073;45.650;9.612;2023-09-19T22:41:38;7.65;;;4.32;;
69795;SDS011;57073;45.650;9.612;2023-09-19T22:46:39;9.30;;;4.50;;
69795;SDS011;57073;45.650;9.612;2023-09-19T22:51:42;9.55;;;4.28;;
69795;SDS011;57073;45.650;9.612;2023-09-19T22:56:51;8.70;;;4.40;;
69795;SDS011;57073;45.650;9.612;2023-09-19T23:01:52;8.03;;;4.53;;
69795;SDS011;57073;45.650;9.612;2023-09-19T23:06:53;8.10;;;4.10;;
69795;SDS011;57073;45.650;9.612;2023-09-19T23:11:54;8.02;;;4.10;;
69795;SDS011;57073;45.650;9.612;2023-09-19T23:16:56;9.67;;;4.17;;
69795;SDS011;57073;45.650;9.612;2023-09-19T23:21:57;8.17;;;4.10;;
69795;SDS011;57073;45.650;9.612;2023-09-19T23:27:05;10.50;;;3.87;;
69795;SDS011;57073;45.650;9.612;2023-09-19T23:32:06;9.63;;;3.80;;
69795;SDS011;57073;45.650;9.612;2023-09-19T23:37:08;7.00;;;3.50;;
69795;SDS011;57073;45.650;9.612;2023-09-19T23:42:09;7.33;;;3.90;;
69795;SDS011;57073;45.650;9.612;2023-09-19T23:47:12;4.97;;;3.17;;
69795;SDS011;57073;45.650;9.612;2023-09-19T23:52:13;8.73;;;3.80;;
69795;SDS011;57073;45.650;9.612;2023-09-19T23:57:13;8.73;;;3.93;;
